SCX581 KILG-KMYR
Flight info
| Callsign | SCX581 |
|---|---|
| Flight time | 1h 11m |
| Altitude | 32000 |
| Route | OOD TEBEE HAYDO TRPOD Q409 CRPLR PAACK WYLMS V70 CRE |
| Aircraft | B738/M-SDE2E3FGHIRWXY/LB1 |
Departure
| Time | 2026-04-29 14:36 |
|---|---|
| Airport | Wilmington Airport (KILG) |
Arrival
| Time | 2026-04-29 15:48 |
|---|---|
| Airport | Myrtle Beach International Airport (KMYR) |
| Time | Latitude | Longitude | Altitude | Speed | Heading |
|---|---|---|---|---|---|
| 2026-04-29 14:23 | 39.67556 | -75.59885 | 83 ft | 0 kts | 221° |
| 2026-04-29 14:32 | 39.67557 | -75.59899 | 86 ft | 3 kts | 296° |
| 2026-04-29 14:32 | 39.67622 | -75.59943 | 84 ft | 16 kts | 333° |
| 2026-04-29 14:33 | 39.67700 | -75.60029 | 88 ft | 14 kts | 311° |
| 2026-04-29 14:33 | 39.67736 | -75.60135 | 84 ft | 13 kts | 295° |
| 2026-04-29 14:33 | 39.67815 | -75.60156 | 86 ft | 12 kts | 5° |
| 2026-04-29 14:33 | 39.67919 | -75.60144 | 84 ft | 19 kts | 5° |
| 2026-04-29 14:34 | 39.68083 | -75.60125 | 66 ft | 27 kts | 5° |
| 2026-04-29 14:34 | 39.68276 | -75.60103 | 69 ft | 28 kts | 5° |
| 2026-04-29 14:34 | 39.68464 | -75.60082 | 68 ft | 26 kts | 5° |
| 2026-04-29 14:34 | 39.68637 | -75.60062 | 65 ft | 24 kts | 5° |
| 2026-04-29 14:35 | 39.68778 | -75.60046 | 66 ft | 15 kts | 0° |
| 2026-04-29 14:35 | 39.68823 | -75.60119 | 71 ft | 10 kts | 263° |
| 2026-04-29 14:35 | 39.68762 | -75.60173 | 64 ft | 14 kts | 186° |
| 2026-04-29 14:35 | 39.68568 | -75.60195 | 65 ft | 63 kts | 185° |
| 2026-04-29 14:36 | 39.67841 | -75.60277 | 89 ft | 143 kts | 185° |
| 2026-04-29 14:36 | 39.66668 | -75.60421 | 468 ft | 186 kts | 184° |
| 2026-04-29 14:36 | 39.65318 | -75.60581 | 1299 ft | 202 kts | 185° |
| 2026-04-29 14:36 | 39.63889 | -75.60749 | 2126 ft | 207 kts | 184° |
| 2026-04-29 14:37 | 39.62429 | -75.60913 | 2701 ft | 219 kts | 184° |
| 2026-04-29 14:37 | 39.60871 | -75.61082 | 2964 ft | 228 kts | 184° |
| 2026-04-29 14:37 | 39.59281 | -75.61254 | 2978 ft | 230 kts | 184° |
| 2026-04-29 14:37 | 39.57676 | -75.61103 | 2988 ft | 241 kts | 157° |
| 2026-04-29 14:38 | 39.56430 | -75.59594 | 3528 ft | 258 kts | 117° |
| 2026-04-29 14:38 | 39.55929 | -75.57369 | 4463 ft | 263 kts | 105° |
| 2026-04-29 14:38 | 39.55464 | -75.55041 | 5287 ft | 271 kts | 105° |
| 2026-04-29 14:38 | 39.54962 | -75.52655 | 6154 ft | 276 kts | 106° |
| 2026-04-29 14:39 | 39.54436 | -75.50243 | 7030 ft | 280 kts | 106° |
| 2026-04-29 14:39 | 39.53885 | -75.47781 | 7851 ft | 287 kts | 106° |
| 2026-04-29 14:39 | 39.53324 | -75.45316 | 8721 ft | 290 kts | 107° |
| 2026-04-29 14:39 | 39.52738 | -75.42772 | 9477 ft | 299 kts | 107° |
| 2026-04-29 14:40 | 39.52136 | -75.40174 | 10278 ft | 304 kts | 107° |
| 2026-04-29 14:40 | 39.51479 | -75.37467 | 10583 ft | 328 kts | 112° |
| 2026-04-29 14:40 | 39.50151 | -75.34960 | 10761 ft | 351 kts | 140° |
| 2026-04-29 14:40 | 39.47381 | -75.33255 | 11202 ft | 366 kts | 174° |
| 2026-04-29 14:41 | 39.42304 | -75.33927 | 12056 ft | 372 kts | 192° |
| 2026-04-29 14:41 | 39.37202 | -75.35040 | 12012 ft | 375 kts | 191° |
| 2026-04-29 14:41 | 39.32092 | -75.36031 | 11957 ft | 366 kts | 190° |
| 2026-04-29 14:41 | 39.27065 | -75.36948 | 11968 ft | 364 kts | 190° |
| 2026-04-29 14:42 | 39.22041 | -75.37857 | 11972 ft | 365 kts | 190° |
| 2026-04-29 14:42 | 39.17012 | -75.38760 | 11965 ft | 366 kts | 190° |
| 2026-04-29 14:42 | 39.11958 | -75.39659 | 11974 ft | 366 kts | 190° |
| 2026-04-29 14:42 | 39.06902 | -75.40557 | 11971 ft | 367 kts | 191° |
| 2026-04-29 14:43 | 39.01837 | -75.41456 | 11968 ft | 367 kts | 191° |
| 2026-04-29 14:43 | 38.96774 | -75.42354 | 11987 ft | 368 kts | 191° |
| 2026-04-29 14:43 | 38.91688 | -75.43255 | 11972 ft | 369 kts | 190° |
| 2026-04-29 14:43 | 38.86656 | -75.44145 | 11979 ft | 369 kts | 191° |
| 2026-04-29 14:44 | 38.81561 | -75.45044 | 11994 ft | 369 kts | 191° |
| 2026-04-29 14:44 | 38.76471 | -75.45942 | 11985 ft | 369 kts | 191° |
| 2026-04-29 14:44 | 38.71377 | -75.46839 | 11998 ft | 369 kts | 191° |
| 2026-04-29 14:44 | 38.66294 | -75.47733 | 11984 ft | 369 kts | 190° |
| 2026-04-29 14:45 | 38.61170 | -75.48634 | 12337 ft | 375 kts | 190° |
| 2026-04-29 14:45 | 38.56019 | -75.49536 | 13865 ft | 380 kts | 191° |
| 2026-04-29 14:45 | 38.50761 | -75.50457 | 15348 ft | 382 kts | 192° |
| 2026-04-29 14:45 | 38.45498 | -75.51377 | 16876 ft | 383 kts | 193° |
| 2026-04-29 14:46 | 38.40187 | -75.52305 | 18249 ft | 387 kts | 194° |
| 2026-04-29 14:46 | 38.34886 | -75.53501 | 19355 ft | 385 kts | 204° |
| 2026-04-29 14:46 | 38.32378 | -75.54819 | 19864 ft | 384 kts | 212° |
| 2026-04-29 14:46 | 38.30110 | -75.56589 | 20379 ft | 383 kts | 219° |
| 2026-04-29 14:47 | 38.27906 | -75.58527 | 20899 ft | 386 kts | 219° |
| 2026-04-29 14:47 | 38.27104 | -75.59238 | 21077 ft | 387 kts | 219° |
| 2026-04-29 14:47 | 38.24882 | -75.61206 | 21545 ft | 391 kts | 219° |
| 2026-04-29 14:47 | 38.23397 | -75.62518 | 21856 ft | 394 kts | 219° |
| 2026-04-29 14:48 | 38.20359 | -75.65188 | 22467 ft | 398 kts | 219° |
| 2026-04-29 14:48 | 38.18064 | -75.67195 | 22905 ft | 402 kts | 219° |
| 2026-04-29 14:48 | 38.15775 | -75.69190 | 23325 ft | 406 kts | 218° |
| 2026-04-29 14:48 | 38.13434 | -75.71225 | 23719 ft | 410 kts | 218° |
| 2026-04-29 14:49 | 38.11070 | -75.73277 | 24089 ft | 412 kts | 219° |
| 2026-04-29 14:49 | 38.08697 | -75.75333 | 24490 ft | 414 kts | 219° |
| 2026-04-29 14:49 | 38.06311 | -75.77399 | 24896 ft | 415 kts | 219° |
| 2026-04-29 14:49 | 38.03928 | -75.79462 | 25266 ft | 418 kts | 219° |
| 2026-04-29 14:50 | 38.01499 | -75.81563 | 25580 ft | 422 kts | 219° |
| 2026-04-29 14:50 | 37.99062 | -75.83670 | 25875 ft | 425 kts | 219° |
| 2026-04-29 14:50 | 37.96609 | -75.85788 | 26254 ft | 427 kts | 219° |
| 2026-04-29 14:50 | 37.94146 | -75.87912 | 26650 ft | 428 kts | 219° |
| 2026-04-29 14:51 | 37.91682 | -75.90036 | 27022 ft | 429 kts | 219° |
| 2026-04-29 14:51 | 37.89206 | -75.92168 | 27359 ft | 431 kts | 220° |
| 2026-04-29 14:51 | 37.86718 | -75.94310 | 27691 ft | 433 kts | 220° |
| 2026-04-29 14:51 | 37.84259 | -75.96424 | 28078 ft | 433 kts | 220° |
| 2026-04-29 14:52 | 37.81772 | -75.98559 | 28593 ft | 430 kts | 220° |
| 2026-04-29 14:52 | 37.79302 | -76.00677 | 29099 ft | 428 kts | 220° |
| 2026-04-29 14:52 | 37.76843 | -76.02786 | 29562 ft | 427 kts | 220° |
| 2026-04-29 14:52 | 37.74387 | -76.04892 | 30032 ft | 425 kts | 220° |
| 2026-04-29 14:53 | 37.71945 | -76.06984 | 30465 ft | 423 kts | 220° |
| 2026-04-29 14:53 | 37.69539 | -76.09040 | 31316 ft | 408 kts | 221° |
| 2026-04-29 14:53 | 37.67228 | -76.11009 | 31805 ft | 394 kts | 221° |
| 2026-04-29 14:53 | 37.64993 | -76.12918 | 32060 ft | 381 kts | 221° |
| 2026-04-29 14:54 | 37.62818 | -76.14777 | 32046 ft | 374 kts | 222° |
| 2026-04-29 14:54 | 37.58423 | -76.18201 | 32066 ft | 377 kts | 217° |
| 2026-04-29 14:55 | 37.53760 | -76.21293 | 32072 ft | 380 kts | 216° |
| 2026-04-29 14:55 | 37.49052 | -76.24383 | 32053 ft | 377 kts | 216° |
| 2026-04-29 14:56 | 37.44478 | -76.27391 | 32054 ft | 366 kts | 217° |
| 2026-04-29 14:56 | 37.40001 | -76.30359 | 32071 ft | 366 kts | 217° |
| 2026-04-29 14:57 | 37.35483 | -76.33358 | 32056 ft | 367 kts | 217° |
| 2026-04-29 14:57 | 37.30948 | -76.36362 | 32063 ft | 368 kts | 217° |
| 2026-04-29 14:58 | 37.26409 | -76.39364 | 32065 ft | 369 kts | 217° |
| 2026-04-29 14:58 | 37.21890 | -76.42346 | 32065 ft | 369 kts | 217° |
| 2026-04-29 14:59 | 37.17342 | -76.45344 | 32064 ft | 369 kts | 217° |
| 2026-04-29 14:59 | 37.12794 | -76.48337 | 32057 ft | 369 kts | 217° |
| 2026-04-29 15:00 | 37.09010 | -76.50825 | 32070 ft | 369 kts | 217° |
| 2026-04-29 15:00 | 37.04471 | -76.53805 | 32064 ft | 368 kts | 217° |
| 2026-04-29 15:01 | 36.99942 | -76.56774 | 32057 ft | 366 kts | 217° |
| 2026-04-29 15:01 | 36.95431 | -76.59728 | 32056 ft | 365 kts | 217° |
| 2026-04-29 15:02 | 36.90931 | -76.62671 | 32043 ft | 364 kts | 216° |
| 2026-04-29 15:02 | 36.86436 | -76.65609 | 32054 ft | 365 kts | 216° |
| 2026-04-29 15:03 | 36.81952 | -76.68536 | 32065 ft | 367 kts | 216° |
| 2026-04-29 15:03 | 36.77409 | -76.71496 | 32064 ft | 368 kts | 216° |
| 2026-04-29 15:04 | 36.72853 | -76.74460 | 32050 ft | 370 kts | 216° |
| 2026-04-29 15:04 | 36.68280 | -76.77430 | 32061 ft | 370 kts | 216° |
| 2026-04-29 15:05 | 36.63716 | -76.80390 | 32056 ft | 369 kts | 216° |
| 2026-04-29 15:05 | 36.59185 | -76.83324 | 32050 ft | 368 kts | 216° |
| 2026-04-29 15:06 | 36.54655 | -76.86254 | 32046 ft | 366 kts | 216° |
| 2026-04-29 15:06 | 36.50134 | -76.89176 | 32014 ft | 365 kts | 216° |
| 2026-04-29 15:07 | 36.45622 | -76.92088 | 32029 ft | 365 kts | 216° |
| 2026-04-29 15:07 | 36.41143 | -76.94976 | 32040 ft | 365 kts | 216° |
| 2026-04-29 15:08 | 36.36629 | -76.97882 | 32033 ft | 366 kts | 216° |
| 2026-04-29 15:08 | 36.32099 | -77.00794 | 32032 ft | 367 kts | 216° |
| 2026-04-29 15:09 | 36.27560 | -77.03708 | 32008 ft | 367 kts | 216° |
| 2026-04-29 15:09 | 36.23053 | -77.06597 | 32023 ft | 367 kts | 216° |
| 2026-04-29 15:10 | 36.18520 | -77.09499 | 32031 ft | 367 kts | 216° |
| 2026-04-29 15:10 | 36.13982 | -77.12401 | 32029 ft | 367 kts | 216° |
| 2026-04-29 15:11 | 36.09452 | -77.15294 | 32033 ft | 366 kts | 216° |
| 2026-04-29 15:11 | 36.04918 | -77.18186 | 32012 ft | 366 kts | 215° |
| 2026-04-29 15:12 | 36.00396 | -77.21067 | 32030 ft | 365 kts | 215° |
| 2026-04-29 15:12 | 35.95909 | -77.23922 | 32046 ft | 365 kts | 214° |
| 2026-04-29 15:13 | 35.91375 | -77.26776 | 32035 ft | 366 kts | 213° |
| 2026-04-29 15:13 | 35.86742 | -77.29423 | 32036 ft | 367 kts | 212° |
| 2026-04-29 15:14 | 35.82094 | -77.32020 | 32012 ft | 366 kts | 212° |
| 2026-04-29 15:14 | 35.77458 | -77.34628 | 32029 ft | 366 kts | 212° |
| 2026-04-29 15:15 | 35.72821 | -77.37248 | 32033 ft | 366 kts | 212° |
| 2026-04-29 15:15 | 35.68202 | -77.39862 | 32028 ft | 367 kts | 212° |
| 2026-04-29 15:16 | 35.63553 | -77.42492 | 32027 ft | 368 kts | 212° |
| 2026-04-29 15:16 | 35.58898 | -77.45120 | 32004 ft | 364 kts | 212° |
| 2026-04-29 15:17 | 35.54351 | -77.47678 | 32018 ft | 356 kts | 212° |
| 2026-04-29 15:17 | 35.49843 | -77.50219 | 32039 ft | 357 kts | 212° |
| 2026-04-29 15:18 | 35.45356 | -77.52747 | 32035 ft | 357 kts | 212° |
| 2026-04-29 15:18 | 35.40834 | -77.55291 | 32038 ft | 357 kts | 212° |
| 2026-04-29 15:19 | 35.36302 | -77.57835 | 32040 ft | 358 kts | 212° |
| 2026-04-29 15:19 | 35.31765 | -77.60379 | 32044 ft | 358 kts | 211° |
| 2026-04-29 15:20 | 35.27266 | -77.62897 | 32036 ft | 358 kts | 211° |
| 2026-04-29 15:20 | 35.22743 | -77.65426 | 32036 ft | 357 kts | 211° |
| 2026-04-29 15:21 | 35.18232 | -77.67945 | 32041 ft | 356 kts | 211° |
| 2026-04-29 15:21 | 35.13754 | -77.70443 | 32051 ft | 355 kts | 211° |
| 2026-04-29 15:22 | 35.09267 | -77.72943 | 32044 ft | 354 kts | 211° |
| 2026-04-29 15:22 | 35.04761 | -77.75453 | 31955 ft | 358 kts | 211° |
| 2026-04-29 15:22 | 35.02471 | -77.76730 | 31285 ft | 365 kts | 211° |
| 2026-04-29 15:23 | 35.00115 | -77.78047 | 30322 ft | 380 kts | 210° |
| 2026-04-29 15:23 | 34.97725 | -77.79372 | 29958 ft | 375 kts | 210° |
| 2026-04-29 15:23 | 34.95385 | -77.80668 | 29477 ft | 374 kts | 210° |
| 2026-04-29 15:23 | 34.92984 | -77.81999 | 28989 ft | 385 kts | 210° |
| 2026-04-29 15:24 | 34.90498 | -77.83383 | 28519 ft | 400 kts | 210° |
| 2026-04-29 15:24 | 34.87964 | -77.84787 | 27985 ft | 398 kts | 210° |
| 2026-04-29 15:24 | 34.85460 | -77.86167 | 27524 ft | 393 kts | 210° |
| 2026-04-29 15:24 | 34.82972 | -77.87538 | 27039 ft | 389 kts | 210° |
| 2026-04-29 15:25 | 34.80514 | -77.88892 | 26554 ft | 386 kts | 210° |
| 2026-04-29 15:25 | 34.78063 | -77.90245 | 25934 ft | 387 kts | 210° |
| 2026-04-29 15:25 | 34.75635 | -77.91585 | 25327 ft | 388 kts | 210° |
| 2026-04-29 15:25 | 34.73185 | -77.92938 | 24818 ft | 386 kts | 210° |
| 2026-04-29 15:26 | 34.70742 | -77.94284 | 24327 ft | 384 kts | 210° |
| 2026-04-29 15:26 | 34.68308 | -77.95625 | 23847 ft | 383 kts | 210° |
| 2026-04-29 15:26 | 34.65887 | -77.96958 | 23320 ft | 381 kts | 209° |
| 2026-04-29 15:26 | 34.63478 | -77.98283 | 22792 ft | 378 kts | 208° |
| 2026-04-29 15:27 | 34.61091 | -77.99595 | 22323 ft | 375 kts | 208° |
| 2026-04-29 15:27 | 34.58721 | -78.00897 | 21856 ft | 372 kts | 208° |
| 2026-04-29 15:27 | 34.56373 | -78.02186 | 21400 ft | 369 kts | 208° |
| 2026-04-29 15:27 | 34.54046 | -78.03463 | 20952 ft | 366 kts | 208° |
| 2026-04-29 15:28 | 34.51728 | -78.04735 | 20506 ft | 364 kts | 208° |
| 2026-04-29 15:28 | 34.50203 | -78.05572 | 20213 ft | 363 kts | 208° |
| 2026-04-29 15:28 | 34.47155 | -78.07242 | 19607 ft | 362 kts | 208° |
| 2026-04-29 15:28 | 34.44861 | -78.08500 | 19170 ft | 361 kts | 208° |
| 2026-04-29 15:29 | 34.43385 | -78.09308 | 18864 ft | 361 kts | 208° |
| 2026-04-29 15:29 | 34.41994 | -78.10069 | 18592 ft | 360 kts | 208° |
| 2026-04-29 15:30 | 34.37467 | -78.12543 | 17640 ft | 356 kts | 208° |
| 2026-04-29 15:30 | 34.35218 | -78.13770 | 17192 ft | 353 kts | 208° |
| 2026-04-29 15:30 | 34.32985 | -78.14989 | 16752 ft | 350 kts | 208° |
| 2026-04-29 15:30 | 34.30774 | -78.16195 | 16294 ft | 348 kts | 208° |
| 2026-04-29 15:31 | 34.28573 | -78.17395 | 15847 ft | 345 kts | 208° |
| 2026-04-29 15:31 | 34.26391 | -78.18584 | 15423 ft | 342 kts | 208° |
| 2026-04-29 15:31 | 34.24225 | -78.19764 | 14993 ft | 340 kts | 209° |
| 2026-04-29 15:31 | 34.22077 | -78.20934 | 14575 ft | 338 kts | 209° |
| 2026-04-29 15:32 | 34.19937 | -78.22098 | 14156 ft | 335 kts | 209° |
| 2026-04-29 15:32 | 34.17842 | -78.23238 | 13729 ft | 333 kts | 209° |
| 2026-04-29 15:32 | 34.15731 | -78.24387 | 13270 ft | 331 kts | 208° |
| 2026-04-29 15:32 | 34.13648 | -78.25517 | 13096 ft | 323 kts | 208° |
| 2026-04-29 15:33 | 34.11629 | -78.26610 | 12937 ft | 315 kts | 209° |
| 2026-04-29 15:33 | 34.09785 | -78.27943 | 12643 ft | 304 kts | 225° |
| 2026-04-29 15:33 | 34.08418 | -78.29913 | 12071 ft | 306 kts | 236° |
| 2026-04-29 15:33 | 34.07134 | -78.31978 | 11642 ft | 308 kts | 235° |
| 2026-04-29 15:34 | 34.05845 | -78.34032 | 11270 ft | 303 kts | 235° |
| 2026-04-29 15:34 | 34.04589 | -78.36022 | 10907 ft | 293 kts | 235° |
| 2026-04-29 15:34 | 34.03374 | -78.37943 | 10548 ft | 284 kts | 234° |
| 2026-04-29 15:34 | 34.02207 | -78.39787 | 10291 ft | 274 kts | 234° |
| 2026-04-29 15:35 | 34.01065 | -78.41584 | 10034 ft | 264 kts | 234° |
| 2026-04-29 15:35 | 33.99968 | -78.43311 | 9768 ft | 255 kts | 234° |
| 2026-04-29 15:35 | 33.98907 | -78.44979 | 9498 ft | 246 kts | 234° |
| 2026-04-29 15:35 | 33.97881 | -78.46593 | 9233 ft | 238 kts | 234° |
| 2026-04-29 15:36 | 33.96890 | -78.48154 | 8969 ft | 231 kts | 234° |
| 2026-04-29 15:36 | 33.95943 | -78.49645 | 8712 ft | 224 kts | 235° |
| 2026-04-29 15:36 | 33.95004 | -78.51124 | 8457 ft | 220 kts | 235° |
| 2026-04-29 15:36 | 33.94083 | -78.52575 | 8216 ft | 218 kts | 235° |
| 2026-04-29 15:37 | 33.93162 | -78.54026 | 7970 ft | 217 kts | 235° |
| 2026-04-29 15:37 | 33.92244 | -78.55472 | 7722 ft | 217 kts | 235° |
| 2026-04-29 15:37 | 33.91328 | -78.56912 | 7482 ft | 216 kts | 235° |
| 2026-04-29 15:37 | 33.90413 | -78.58351 | 7238 ft | 216 kts | 235° |
| 2026-04-29 15:38 | 33.89512 | -78.59769 | 7010 ft | 215 kts | 235° |
| 2026-04-29 15:38 | 33.88603 | -78.61198 | 6772 ft | 215 kts | 235° |
| 2026-04-29 15:38 | 33.87692 | -78.62629 | 6533 ft | 215 kts | 235° |
| 2026-04-29 15:38 | 33.86784 | -78.64055 | 6293 ft | 214 kts | 235° |
| 2026-04-29 15:39 | 33.85879 | -78.65476 | 6038 ft | 214 kts | 235° |
| 2026-04-29 15:39 | 33.84976 | -78.66892 | 5787 ft | 213 kts | 236° |
| 2026-04-29 15:39 | 33.84075 | -78.68304 | 5545 ft | 212 kts | 236° |
| 2026-04-29 15:39 | 33.83179 | -78.69708 | 5308 ft | 213 kts | 236° |
| 2026-04-29 15:40 | 33.82275 | -78.71127 | 5066 ft | 213 kts | 238° |
| 2026-04-29 15:40 | 33.81728 | -78.72737 | 4821 ft | 209 kts | 266° |
| 2026-04-29 15:40 | 33.81794 | -78.74474 | 4578 ft | 209 kts | 281° |
| 2026-04-29 15:40 | 33.82170 | -78.76150 | 4334 ft | 211 kts | 283° |
| 2026-04-29 15:41 | 33.82563 | -78.77850 | 4078 ft | 211 kts | 283° |
| 2026-04-29 15:41 | 33.82952 | -78.79549 | 3828 ft | 210 kts | 283° |
| 2026-04-29 15:41 | 33.83338 | -78.81249 | 3574 ft | 210 kts | 283° |
| 2026-04-29 15:41 | 33.83719 | -78.82940 | 3347 ft | 209 kts | 283° |
| 2026-04-29 15:42 | 33.84097 | -78.84625 | 3088 ft | 208 kts | 282° |
| 2026-04-29 15:42 | 33.84473 | -78.86312 | 2830 ft | 208 kts | 282° |
| 2026-04-29 15:42 | 33.84846 | -78.87988 | 2582 ft | 208 kts | 282° |
| 2026-04-29 15:42 | 33.85219 | -78.89670 | 2339 ft | 208 kts | 283° |
| 2026-04-29 15:43 | 33.85588 | -78.91334 | 2095 ft | 207 kts | 283° |
| 2026-04-29 15:43 | 33.85955 | -78.92991 | 2013 ft | 203 kts | 282° |
| 2026-04-29 15:43 | 33.85910 | -78.94643 | 1968 ft | 199 kts | 244° |
| 2026-04-29 15:43 | 33.84913 | -78.95745 | 1984 ft | 201 kts | 201° |
| 2026-04-29 15:44 | 33.83560 | -78.96027 | 2023 ft | 192 kts | 193° |
| 2026-04-29 15:44 | 33.82279 | -78.96210 | 1996 ft | 181 kts | 182° |
| 2026-04-29 15:44 | 33.81084 | -78.96053 | 1999 ft | 172 kts | 177° |
| 2026-04-29 15:44 | 33.79898 | -78.95810 | 2006 ft | 172 kts | 174° |
| 2026-04-29 15:45 | 33.78744 | -78.95523 | 1922 ft | 166 kts | 174° |
| 2026-04-29 15:45 | 33.77636 | -78.95245 | 1725 ft | 161 kts | 173° |
| 2026-04-29 15:45 | 33.76546 | -78.94973 | 1511 ft | 159 kts | 172° |
| 2026-04-29 15:45 | 33.75459 | -78.94702 | 1300 ft | 160 kts | 172° |
| 2026-04-29 15:46 | 33.74368 | -78.94429 | 1112 ft | 160 kts | 172° |
| 2026-04-29 15:46 | 33.73295 | -78.94160 | 888 ft | 153 kts | 172° |
| 2026-04-29 15:46 | 33.72265 | -78.93903 | 662 ft | 151 kts | 171° |
| 2026-04-29 15:46 | 33.71240 | -78.93641 | 428 ft | 148 kts | 173° |
| 2026-04-29 15:47 | 33.70256 | -78.93400 | 253 ft | 140 kts | 173° |
| 2026-04-29 15:47 | 33.69318 | -78.93164 | 85 ft | 136 kts | 174° |
| 2026-04-29 15:47 | 33.68427 | -78.92942 | 32 ft | 119 kts | 172° |
| 2026-04-29 15:47 | 33.67762 | -78.92778 | 31 ft | 76 kts | 168° |
| 2026-04-29 15:48 | 33.67392 | -78.92688 | 31 ft | 33 kts | 167° |
| 2026-04-29 15:48 | 33.67312 | -78.92658 | 31 ft | 4 kts | 142° |
| 2026-04-29 15:48 | 33.67301 | -78.92602 | 31 ft | 12 kts | 80° |
| 2026-04-29 15:48 | 33.67319 | -78.92504 | 30 ft | 12 kts | 70° |
| 2026-04-29 15:49 | 33.67394 | -78.92486 | 31 ft | 12 kts | 349° |
| 2026-04-29 15:49 | 33.67474 | -78.92506 | 31 ft | 12 kts | 348° |
| 2026-04-29 15:49 | 33.67529 | -78.92519 | 31 ft | 13 kts | 348° |
| 2026-04-29 15:49 | 33.67641 | -78.92547 | 30 ft | 18 kts | 349° |
| 2026-04-29 15:50 | 33.67768 | -78.92577 | 31 ft | 19 kts | 349° |
| 2026-04-29 15:50 | 33.67869 | -78.92576 | 31 ft | 10 kts | 52° |
| 2026-04-29 15:50 | 33.67885 | -78.92507 | 31 ft | 8 kts | 78° |
| 2026-04-29 15:50 | 33.67895 | -78.92448 | 30 ft | 8 kts | 78° |
| 2026-04-29 15:51 | 33.67915 | -78.92383 | 30 ft | 7 kts | 46° |
| 2026-04-29 15:51 | 33.67946 | -78.92376 | 31 ft | 1 kts | 353° |
| 2026-04-29 15:51 | 33.67953 | -78.92377 | 31 ft | 5 kts | 351° |
| 2026-04-29 15:51 | 33.67972 | -78.92381 | 31 ft | 0 kts | 348° |